createdAt,value
2018-11-29T00:00:39.375Z,2.60
2018-11-29T00:03:09.641Z,2.60
2018-11-29T00:05:37.706Z,2.50
2018-11-29T00:08:05.479Z,2.60
2018-11-29T00:10:33.575Z,2.70
2018-11-29T00:13:01.215Z,2.70
2018-11-29T00:15:28.858Z,2.60
2018-11-29T00:17:56.555Z,2.60
2018-11-29T00:20:24.314Z,2.60
2018-11-29T00:22:52.015Z,2.60
2018-11-29T00:25:20.087Z,2.60
2018-11-29T00:27:47.987Z,2.60
2018-11-29T00:30:20.152Z,2.70
2018-11-29T00:32:48.523Z,2.60
2018-11-29T00:35:17.019Z,2.60
2018-11-29T00:37:44.777Z,2.60
2018-11-29T00:40:22.203Z,2.60
2018-11-29T00:42:49.964Z,2.60
2018-11-29T00:45:20.700Z,2.60
2018-11-29T00:47:48.911Z,2.60
2018-11-29T00:50:17.637Z,2.60
2018-11-29T00:52:46.680Z,2.60
2018-11-29T00:55:17.084Z,2.60
2018-11-29T00:57:44.839Z,2.60
2018-11-29T01:00:17.088Z,2.60
2018-11-29T01:02:44.855Z,2.70
2018-11-29T01:05:12.539Z,2.70
2018-11-29T01:07:40.303Z,2.60
2018-11-29T01:10:14.183Z,2.60
2018-11-29T01:12:42.254Z,2.70
2018-11-29T01:15:13.311Z,2.70
2018-11-29T01:17:41.078Z,2.60
2018-11-29T01:20:12.268Z,2.60
2018-11-29T01:22:39.991Z,2.60
2018-11-29T01:25:09.500Z,2.60
2018-11-29T01:27:37.227Z,2.60
2018-11-29T01:30:09.157Z,2.60
2018-11-29T01:32:37.119Z,2.60
2018-11-29T01:35:05.446Z,2.70
2018-11-29T01:37:33.208Z,2.60
2018-11-29T01:40:00.895Z,2.60
2018-11-29T01:42:28.638Z,2.60
2018-11-29T01:44:56.427Z,2.60
2018-11-29T01:47:24.062Z,2.60
2018-11-29T01:49:51.715Z,2.60
2018-11-29T01:52:19.382Z,2.60
2018-11-29T01:54:47.067Z,2.60
2018-11-29T01:57:14.773Z,2.60
2018-11-29T01:59:42.382Z,2.60
2018-11-29T02:02:10.507Z,2.70
2018-11-29T02:04:38.179Z,2.60
2018-11-29T02:07:05.891Z,2.70
2018-11-29T02:09:33.649Z,2.70
2018-11-29T02:12:01.345Z,2.70
2018-11-29T02:14:28.996Z,2.70
2018-11-29T02:16:56.767Z,2.70
2018-11-29T02:19:28.778Z,2.70
2018-11-29T02:21:56.579Z,2.70
2018-11-29T02:24:24.336Z,2.70
2018-11-29T02:26:52.079Z,2.70
2018-11-29T02:29:19.732Z,2.70
2018-11-29T02:31:47.492Z,2.70
2018-11-29T02:34:15.177Z,2.70
2018-11-29T02:36:42.924Z,2.70
2018-11-29T02:39:10.599Z,2.70
2018-11-29T02:41:38.314Z,2.70
2018-11-29T02:44:06.128Z,2.70
2018-11-29T02:46:33.803Z,2.70
2018-11-29T02:49:01.542Z,2.80
2018-11-29T02:51:29.204Z,2.70
2018-11-29T02:53:56.899Z,2.80
2018-11-29T02:56:24.587Z,2.80
2018-11-29T02:58:52.371Z,2.80
2018-11-29T03:01:20.103Z,2.80
2018-11-29T03:03:47.795Z,2.80
2018-11-29T03:06:15.443Z,2.80
2018-11-29T03:08:43.175Z,2.80
2018-11-29T03:11:10.807Z,2.80
2018-11-29T03:13:38.474Z,2.80
2018-11-29T03:16:06.231Z,2.80
2018-11-29T03:18:33.983Z,2.80
2018-11-29T03:21:01.699Z,2.90
2018-11-29T03:23:29.455Z,2.90
2018-11-29T03:25:57.143Z,2.80
2018-11-29T03:28:24.836Z,2.90
2018-11-29T03:30:52.561Z,2.80
2018-11-29T03:33:20.244Z,2.90
2018-11-29T03:35:47.948Z,2.90
2018-11-29T03:38:15.691Z,2.90
2018-11-29T03:40:43.375Z,2.90
2018-11-29T03:43:11.068Z,2.90
2018-11-29T03:45:38.783Z,2.90
2018-11-29T03:48:06.464Z,2.90
2018-11-29T03:50:34.136Z,2.90
2018-11-29T03:53:01.843Z,2.80
2018-11-29T03:55:29.492Z,2.90
2018-11-29T03:57:57.186Z,2.90
2018-11-29T04:00:24.903Z,2.90
2018-11-29T04:02:52.567Z,2.90
2018-11-29T04:05:20.264Z,2.90
2018-11-29T04:07:47.892Z,2.90
2018-11-29T04:10:16.051Z,2.90
2018-11-29T04:12:43.839Z,2.90
2018-11-29T04:15:14.598Z,2.90
2018-11-29T04:17:42.471Z,2.90
2018-11-29T04:20:13.146Z,2.90
2018-11-29T04:22:40.847Z,2.90
2018-11-29T04:25:11.346Z,2.90
2018-11-29T04:27:39.126Z,2.90
2018-11-29T04:30:13.265Z,2.90
2018-11-29T04:32:40.936Z,2.90
2018-11-29T04:35:09.641Z,2.90
2018-11-29T04:37:37.947Z,2.90
2018-11-29T04:40:09.564Z,2.90
2018-11-29T04:42:37.195Z,3.00
2018-11-29T04:45:07.689Z,3.00
2018-11-29T04:47:35.551Z,3.00
2018-11-29T04:50:03.311Z,3.00
2018-11-29T04:52:30.946Z,3.10
2018-11-29T04:54:58.711Z,3.10
2018-11-29T04:57:26.385Z,3.10
2018-11-29T04:59:54.150Z,3.10
2018-11-29T05:02:21.920Z,3.10
2018-11-29T05:04:49.671Z,3.10
2018-11-29T05:07:17.303Z,3.10
2018-11-29T05:09:45.039Z,3.10
2018-11-29T05:12:12.795Z,3.10
2018-11-29T05:14:40.452Z,3.10
2018-11-29T05:17:08.176Z,3.00
2018-11-29T05:19:35.868Z,3.10
2018-11-29T05:22:03.566Z,3.10
2018-11-29T05:24:31.192Z,3.10
2018-11-29T05:26:58.863Z,3.10
2018-11-29T05:29:26.585Z,3.10
2018-11-29T05:31:54.271Z,3.10
2018-11-29T05:34:21.921Z,3.20
2018-11-29T05:36:49.654Z,3.20
2018-11-29T05:39:17.351Z,3.20
2018-11-29T05:41:45.015Z,3.20
2018-11-29T05:44:12.729Z,3.20
2018-11-29T05:46:40.423Z,3.20
2018-11-29T05:49:08.071Z,3.20
2018-11-29T05:51:35.766Z,3.20
2018-11-29T05:54:03.767Z,3.20
2018-11-29T05:56:31.483Z,3.20
2018-11-29T05:58:59.251Z,3.10
2018-11-29T06:01:30.859Z,3.20
2018-11-29T06:03:58.478Z,3.20
2018-11-29T06:06:26.215Z,3.20
2018-11-29T06:08:54.302Z,3.10
2018-11-29T06:11:22.018Z,3.10
2018-11-29T06:13:49.762Z,3.10
2018-11-29T06:16:17.663Z,3.10
2018-11-29T06:18:45.416Z,3.10
2018-11-29T06:21:13.251Z,3.10
2018-11-29T06:23:40.986Z,3.10
2018-11-29T06:26:09.011Z,3.00
2018-11-29T06:28:37.003Z,3.00
2018-11-29T06:31:05.323Z,3.10
2018-11-29T06:33:35.034Z,3.00
2018-11-29T06:36:02.915Z,3.00
2018-11-29T06:38:30.602Z,3.00
2018-11-29T06:40:58.557Z,3.00
2018-11-29T06:43:26.323Z,3.00
2018-11-29T06:45:54.399Z,2.90
2018-11-29T06:48:22.143Z,2.90
2018-11-29T06:50:49.963Z,2.80
2018-11-29T06:53:23.439Z,2.90
2018-11-29T06:55:51.163Z,2.90
2018-11-29T06:58:18.907Z,2.80
2018-11-29T07:00:46.967Z,2.80
2018-11-29T07:03:14.699Z,2.80
2018-11-29T07:05:44.164Z,2.70
2018-11-29T07:08:11.893Z,2.80
2018-11-29T07:10:39.641Z,2.80
2018-11-29T07:13:07.444Z,2.70
2018-11-29T07:15:35.269Z,2.70
2018-11-29T07:18:02.977Z,2.70
2018-11-29T07:20:31.612Z,2.70
2018-11-29T07:22:59.372Z,2.70
2018-11-29T07:25:27.067Z,2.70
2018-11-29T07:27:54.949Z,2.70
2018-11-29T07:30:22.683Z,2.70
2018-11-29T07:32:50.438Z,2.80
2018-11-29T07:35:18.199Z,2.80
2018-11-29T07:37:45.931Z,2.80
2018-11-29T07:40:17.372Z,2.80
2018-11-29T07:42:47.080Z,2.80
2018-11-29T07:45:16.358Z,2.90
2018-11-29T07:47:44.763Z,2.90
2018-11-29T07:50:20.311Z,2.90
2018-11-29T07:52:48.027Z,3.00
2018-11-29T07:55:17.418Z,2.90
2018-11-29T07:57:46.409Z,2.90
2018-11-29T08:00:15.499Z,2.90
2018-11-29T08:02:43.449Z,3.00
2018-11-29T08:05:13.512Z,3.00
2018-11-29T08:07:47.682Z,3.10
2018-11-29T08:10:18.591Z,3.10
2018-11-29T08:12:46.599Z,3.20
2018-11-29T08:15:16.394Z,3.30
2018-11-29T08:17:44.147Z,3.30
2018-11-29T08:20:15.384Z,3.20
2018-11-29T08:22:43.125Z,3.30
2018-11-29T08:25:11.179Z,3.30
2018-11-29T08:27:38.903Z,3.30
2018-11-29T08:30:09.712Z,3.30
2018-11-29T08:32:37.487Z,3.30
2018-11-29T08:35:06.426Z,3.30
2018-11-29T08:37:34.088Z,3.30
2018-11-29T08:40:01.855Z,3.30
2018-11-29T08:42:29.530Z,3.50
2018-11-29T08:44:57.265Z,3.40
2018-11-29T08:47:24.939Z,3.40
2018-11-29T08:49:52.680Z,3.40
2018-11-29T08:52:20.439Z,3.30
2018-11-29T08:54:48.107Z,3.30
2018-11-29T08:57:15.876Z,3.30
2018-11-29T08:59:44.023Z,3.40
2018-11-29T09:02:11.791Z,3.50
2018-11-29T09:04:39.503Z,3.40
2018-11-29T09:07:07.270Z,3.50
2018-11-29T09:09:34.928Z,3.50
2018-11-29T09:12:02.692Z,3.50
2018-11-29T09:14:30.408Z,3.50
2018-11-29T09:16:58.079Z,3.50
2018-11-29T09:19:25.722Z,3.50
2018-11-29T09:21:53.447Z,3.60
2018-11-29T09:24:21.119Z,3.60
2018-11-29T09:26:48.828Z,3.70
2018-11-29T09:29:16.535Z,3.80
2018-11-29T09:31:44.247Z,4.00
2018-11-29T09:34:11.907Z,4.10
2018-11-29T09:36:39.598Z,4.10
2018-11-29T09:39:08.276Z,4.30
2018-11-29T09:41:36.343Z,4.20
2018-11-29T09:44:04.095Z,4.30
2018-11-29T09:46:31.871Z,4.40
2018-11-29T09:48:59.735Z,4.50
2018-11-29T09:51:27.421Z,4.60
2018-11-29T09:53:55.167Z,4.80
2018-11-29T09:56:22.919Z,4.70
2018-11-29T09:58:50.692Z,5.00
2018-11-29T10:01:18.435Z,5.30
2018-11-29T10:03:46.123Z,5.30
2018-11-29T10:06:13.816Z,5.30
2018-11-29T10:08:41.496Z,5.50
2018-11-29T10:11:09.211Z,5.70
2018-11-29T10:13:36.855Z,6.00
2018-11-29T10:16:04.567Z,6.10
2018-11-29T10:18:32.323Z,6.00
2018-11-29T10:21:00.039Z,6.40
2018-11-29T10:23:27.708Z,6.30
2018-11-29T10:25:55.529Z,6.60
2018-11-29T10:28:23.280Z,6.20
2018-11-29T10:30:55.251Z,6.20
2018-11-29T10:33:22.947Z,6.30
2018-11-29T10:35:50.668Z,6.30
2018-11-29T10:38:18.492Z,6.40
2018-11-29T10:40:46.263Z,6.30
2018-11-29T10:43:14.032Z,6.50
2018-11-29T10:45:41.657Z,6.50
2018-11-29T10:48:14.527Z,6.50
2018-11-29T10:50:42.263Z,6.10
2018-11-29T10:53:10.024Z,6.30
2018-11-29T10:55:37.759Z,6.50
2018-11-29T10:58:05.815Z,6.50
2018-11-29T11:00:39.319Z,6.40
2018-11-29T11:03:13.155Z,6.30
2018-11-29T11:05:41.028Z,6.10
2018-11-29T11:08:09.126Z,6.30
2018-11-29T11:10:38.227Z,6.20
2018-11-29T11:13:06.264Z,6.50
2018-11-29T11:15:34.040Z,6.60
2018-11-29T11:18:01.767Z,6.40
2018-11-29T11:20:29.479Z,6.40
2018-11-29T11:22:57.274Z,6.20
2018-11-29T11:25:25.028Z,6.20
2018-11-29T11:27:52.859Z,6.00
2018-11-29T11:30:21.532Z,6.00
2018-11-29T11:32:50.735Z,6.20
2018-11-29T11:35:18.839Z,6.20
2018-11-29T11:37:46.566Z,6.40
2018-11-29T11:40:16.555Z,6.10
2018-11-29T11:42:45.399Z,6.10
2018-11-29T11:45:17.667Z,6.10
2018-11-29T11:47:45.607Z,6.10
2018-11-29T11:50:29.921Z,5.80
2018-11-29T11:52:57.627Z,6.00
2018-11-29T11:55:30.030Z,6.00
2018-11-29T11:57:53.800Z,6.10
2018-11-29T12:00:24.376Z,5.90
2018-11-29T12:03:05.396Z,6.00
2018-11-29T12:05:33.099Z,6.10
2018-11-29T12:08:00.835Z,6.00
2018-11-29T12:10:29.133Z,6.10
2018-11-29T12:12:56.779Z,5.90
2018-11-29T12:15:24.495Z,5.90
2018-11-29T12:17:52.271Z,5.90
2018-11-29T12:20:20.353Z,6.10
2018-11-29T12:22:48.031Z,6.00
2018-11-29T12:25:17.615Z,6.20
2018-11-29T12:27:45.359Z,6.10
2018-11-29T12:30:20.103Z,6.10
2018-11-29T12:32:47.881Z,6.20
2018-11-29T12:35:15.652Z,6.30
2018-11-29T12:37:44.010Z,6.10
2018-11-29T12:40:15.039Z,6.20
2018-11-29T12:42:42.976Z,6.00
2018-11-29T12:45:13.863Z,6.00
2018-11-29T12:47:42.746Z,6.00
2018-11-29T12:50:15.032Z,6.20
2018-11-29T12:52:43.251Z,6.10
2018-11-29T12:55:12.189Z,6.20
2018-11-29T12:57:39.931Z,6.10
2018-11-29T13:00:10.920Z,6.10
2018-11-29T13:02:38.519Z,6.10
2018-11-29T13:05:07.893Z,6.10
2018-11-29T13:07:35.623Z,6.30
2018-11-29T13:10:03.663Z,6.20
2018-11-29T13:12:31.315Z,6.30
2018-11-29T13:14:59.092Z,6.20
2018-11-29T13:17:30.242Z,6.30
2018-11-29T13:19:57.895Z,6.20
2018-11-29T13:22:25.583Z,6.10
2018-11-29T13:24:53.244Z,6.10
2018-11-29T13:27:20.947Z,6.10
2018-11-29T13:29:48.721Z,6.10
2018-11-29T13:32:16.429Z,6.20
2018-11-29T13:34:44.151Z,6.30
2018-11-29T13:37:11.841Z,6.20
2018-11-29T13:39:39.520Z,6.10
2018-11-29T13:42:07.256Z,6.10
2018-11-29T13:44:34.980Z,6.10
2018-11-29T13:47:02.720Z,5.90
2018-11-29T13:49:30.376Z,5.90
2018-11-29T13:51:58.022Z,5.70
2018-11-29T13:54:25.645Z,6.00
2018-11-29T13:56:53.419Z,5.90
2018-11-29T13:59:25.738Z,6.10
2018-11-29T14:01:53.523Z,6.00
2018-11-29T14:04:21.184Z,5.90
2018-11-29T14:06:48.833Z,6.10
2018-11-29T14:09:16.531Z,6.10
2018-11-29T14:11:44.229Z,6.10
2018-11-29T14:14:11.994Z,6.00
2018-11-29T14:16:39.749Z,6.10
2018-11-29T14:19:07.463Z,6.10
2018-11-29T14:21:35.119Z,6.00
2018-11-29T14:24:02.807Z,6.00
2018-11-29T14:26:30.541Z,6.00
2018-11-29T14:28:58.179Z,6.00
2018-11-29T14:31:25.904Z,5.80
2018-11-29T14:33:53.804Z,5.80
2018-11-29T14:36:21.476Z,5.70
2018-11-29T14:38:49.118Z,5.70
2018-11-29T14:41:16.834Z,5.60
2018-11-29T14:43:44.532Z,5.40
2018-11-29T14:46:12.198Z,5.40
2018-11-29T14:48:39.923Z,5.30
2018-11-29T14:51:07.577Z,5.20
2018-11-29T14:53:35.278Z,5.20
2018-11-29T14:56:02.928Z,5.20
2018-11-29T14:58:30.627Z,5.40
2018-11-29T15:00:58.355Z,5.30
2018-11-29T15:03:28.693Z,5.20
2018-11-29T15:05:56.412Z,5.30
2018-11-29T15:08:24.095Z,5.30
2018-11-29T15:10:51.819Z,5.30
2018-11-29T15:13:19.566Z,5.30
2018-11-29T15:15:47.260Z,5.30
2018-11-29T15:18:14.987Z,5.30
2018-11-29T15:20:45.659Z,5.30
2018-11-29T15:23:15.303Z,5.30
2018-11-29T15:25:43.024Z,5.30
2018-11-29T15:28:10.742Z,5.30
2018-11-29T15:30:38.484Z,5.30
2018-11-29T15:33:06.256Z,5.30
2018-11-29T15:35:33.991Z,5.30
2018-11-29T15:38:02.351Z,5.30
2018-11-29T15:40:30.213Z,5.30
2018-11-29T15:42:57.902Z,5.30
2018-11-29T15:45:27.262Z,5.30
2018-11-29T15:47:55.159Z,5.30
2018-11-29T15:50:22.915Z,5.40
2018-11-29T15:52:50.615Z,5.30
2018-11-29T15:55:20.766Z,5.30
2018-11-29T15:57:50.608Z,5.20
2018-11-29T16:00:22.737Z,5.20
2018-11-29T16:02:51.155Z,5.20
2018-11-29T16:05:18.953Z,5.20
2018-11-29T16:07:46.623Z,5.10
2018-11-29T16:10:17.850Z,5.20
2018-11-29T16:12:45.515Z,5.10
2018-11-29T16:15:15.297Z,5.10
2018-11-29T16:17:43.723Z,5.10
2018-11-29T16:20:17.116Z,5.10
2018-11-29T16:22:44.127Z,5.10
2018-11-29T16:25:11.908Z,5.10
2018-11-29T16:27:41.770Z,5.10
2018-11-29T16:30:41.091Z,5.10
2018-11-29T16:33:14.191Z,5.10
2018-11-29T16:35:41.928Z,5.10
2018-11-29T16:38:09.723Z,5.10
2018-11-29T16:40:37.419Z,5.10
2018-11-29T16:43:06.343Z,5.10
2018-11-29T16:45:34.208Z,5.10
2018-11-29T16:48:01.903Z,5.10
2018-11-29T16:50:29.580Z,5.10
2018-11-29T16:52:57.218Z,5.10
2018-11-29T16:55:24.915Z,5.00
2018-11-29T16:57:56.282Z,5.00
2018-11-29T17:00:24.018Z,5.00
2018-11-29T17:02:51.741Z,5.00
2018-11-29T17:05:19.595Z,5.00
2018-11-29T17:07:47.323Z,5.00
2018-11-29T17:10:16.748Z,5.00
2018-11-29T17:12:50.486Z,5.00
2018-11-29T17:15:19.047Z,5.00
2018-11-29T17:17:46.911Z,5.00
2018-11-29T17:20:18.002Z,4.90
2018-11-29T17:22:46.419Z,5.00
2018-11-29T17:25:14.235Z,5.00
2018-11-29T17:27:41.927Z,5.00
2018-11-29T17:30:27.056Z,5.00
2018-11-29T17:32:57.177Z,5.10
2018-11-29T17:35:24.906Z,5.10
2018-11-29T17:37:54.559Z,5.20
2018-11-29T17:40:22.423Z,5.10
2018-11-29T17:42:51.601Z,5.20
2018-11-29T17:45:21.955Z,5.10
2018-11-29T17:47:51.698Z,5.00
2018-11-29T17:50:22.616Z,5.00
2018-11-29T17:52:50.367Z,5.00
2018-11-29T17:55:18.156Z,5.00
2018-11-29T17:57:45.826Z,4.90
2018-11-29T18:00:16.788Z,4.90
2018-11-29T18:02:44.511Z,4.90
2018-11-29T18:05:12.200Z,4.90
2018-11-29T18:07:39.891Z,4.90
2018-11-29T18:10:11.191Z,4.90
2018-11-29T18:12:39.351Z,4.90
2018-11-29T18:15:14.591Z,4.90
2018-11-29T18:17:42.378Z,4.90
2018-11-29T18:20:11.385Z,4.90
2018-11-29T18:22:39.248Z,4.80
2018-11-29T18:25:10.521Z,4.90
2018-11-29T18:27:38.691Z,4.80
2018-11-29T18:30:11.755Z,4.80
2018-11-29T18:32:40.185Z,4.70
2018-11-29T18:35:09.420Z,4.60
2018-11-29T18:37:37.242Z,4.60
2018-11-29T18:40:17.236Z,4.50
2018-11-29T18:42:47.615Z,4.50
2018-11-29T18:45:16.845Z,4.50
2018-11-29T18:47:46.579Z,4.50
2018-11-29T18:50:20.130Z,4.40
2018-11-29T18:52:47.975Z,4.40
2018-11-29T18:55:16.209Z,4.30
2018-11-29T18:57:43.927Z,4.30
2018-11-29T19:00:18.255Z,4.20
2018-11-29T19:02:45.946Z,4.20
2018-11-29T19:05:13.727Z,4.20
2018-11-29T19:07:41.543Z,4.20
2018-11-29T19:10:13.551Z,4.10
2018-11-29T19:12:47.560Z,4.10
2018-11-29T19:15:15.227Z,4.00
2018-11-29T19:17:43.047Z,3.90
2018-11-29T19:20:12.664Z,3.90
2018-11-29T19:22:40.485Z,4.10
2018-11-29T19:25:13.996Z,4.00
2018-11-29T19:27:40.860Z,4.10
2018-11-29T19:30:12.979Z,4.10
2018-11-29T19:32:40.730Z,3.90
2018-11-29T19:35:10.023Z,3.80
2018-11-29T19:37:40.682Z,3.90
2018-11-29T19:40:16.807Z,3.90
2018-11-29T19:42:44.450Z,4.00
2018-11-29T19:45:13.847Z,3.90
2018-11-29T19:47:41.561Z,3.80
2018-11-29T19:50:19.135Z,4.20
2018-11-29T19:52:52.791Z,3.90
2018-11-29T19:55:23.559Z,4.00
2018-11-29T19:57:51.307Z,4.00
2018-11-29T20:00:19.428Z,4.10
2018-11-29T20:02:48.296Z,4.10
2018-11-29T20:05:15.963Z,4.00
2018-11-29T20:07:43.679Z,4.00
2018-11-29T20:10:14.295Z,4.00
2018-11-29T20:12:42.351Z,4.10
2018-11-29T20:15:15.903Z,4.10
2018-11-29T20:17:43.727Z,4.20
2018-11-29T20:20:14.958Z,4.10
2018-11-29T20:22:43.019Z,4.10
2018-11-29T20:25:13.390Z,4.10
2018-11-29T20:27:41.221Z,4.00
2018-11-29T20:30:11.931Z,3.90
2018-11-29T20:32:39.722Z,4.00
2018-11-29T20:35:08.476Z,4.00
2018-11-29T20:37:36.187Z,4.10
2018-11-29T20:40:12.822Z,4.10
2018-11-29T20:42:40.607Z,4.10
2018-11-29T20:45:11.867Z,4.10
2018-11-29T20:47:39.871Z,4.10
2018-11-29T20:50:14.725Z,4.10
2018-11-29T20:52:38.408Z,4.10
2018-11-29T20:55:11.079Z,4.00
2018-11-29T20:57:38.767Z,3.90
2018-11-29T21:00:10.782Z,3.80
2018-11-29T21:02:38.547Z,3.80
2018-11-29T21:05:08.703Z,3.80
2018-11-29T21:07:36.617Z,3.70
2018-11-29T21:10:13.055Z,3.70
2018-11-29T21:12:41.143Z,3.70
2018-11-29T21:15:09.017Z,3.60
2018-11-29T21:17:36.687Z,3.60
2018-11-29T21:20:11.011Z,3.50
2018-11-29T21:22:38.877Z,3.40
2018-11-29T21:25:10.003Z,3.40
2018-11-29T21:27:37.685Z,3.30
2018-11-29T21:30:10.147Z,3.30
2018-11-29T21:32:37.858Z,3.30
2018-11-29T21:35:06.307Z,3.00
2018-11-29T21:37:34.095Z,2.90
2018-11-29T21:40:01.935Z,2.90
2018-11-29T21:42:29.715Z,2.90
2018-11-29T21:44:57.487Z,2.90
2018-11-29T21:47:25.191Z,2.80
2018-11-29T21:49:52.982Z,2.90
2018-11-29T21:52:20.684Z,2.80
2018-11-29T21:54:48.379Z,2.80
2018-11-29T21:57:16.051Z,2.70
2018-11-29T21:59:43.729Z,2.90
2018-11-29T22:02:11.486Z,2.70
2018-11-29T22:04:39.211Z,2.70
2018-11-29T22:07:06.876Z,2.70
2018-11-29T22:09:34.616Z,2.70
2018-11-29T22:12:02.406Z,2.80
2018-11-29T22:14:30.128Z,2.90
2018-11-29T22:16:57.882Z,2.90
2018-11-29T22:19:25.591Z,2.80
2018-11-29T22:21:53.247Z,2.90
2018-11-29T22:24:20.924Z,2.80
2018-11-29T22:26:48.547Z,2.70
2018-11-29T22:29:16.247Z,2.60
2018-11-29T22:31:43.880Z,2.70
2018-11-29T22:34:11.556Z,2.80
2018-11-29T22:36:39.269Z,2.90
2018-11-29T22:39:08.959Z,2.90
2018-11-29T22:41:36.617Z,2.90
2018-11-29T22:44:04.779Z,2.90
2018-11-29T22:46:32.426Z,2.80
2018-11-29T22:49:00.084Z,3.00
2018-11-29T22:51:27.801Z,3.10
2018-11-29T22:53:55.495Z,3.20
2018-11-29T22:56:23.201Z,3.20
2018-11-29T22:58:50.959Z,3.10
2018-11-29T23:01:24.556Z,3.10
2018-11-29T23:03:52.277Z,3.10
2018-11-29T23:06:19.963Z,3.10
2018-11-29T23:08:47.719Z,3.20
2018-11-29T23:11:18.574Z,3.20
2018-11-29T23:13:46.358Z,3.20
2018-11-29T23:16:14.062Z,3.20
2018-11-29T23:18:41.792Z,3.10
2018-11-29T23:21:09.509Z,3.00
2018-11-29T23:23:37.187Z,2.90
2018-11-29T23:26:05.556Z,2.90
2018-11-29T23:28:33.243Z,2.90
2018-11-29T23:31:01.087Z,2.90
2018-11-29T23:33:28.828Z,3.00
2018-11-29T23:35:56.585Z,3.00
2018-11-29T23:38:24.271Z,2.90
2018-11-29T23:40:52.031Z,2.90
2018-11-29T23:43:19.739Z,2.90
2018-11-29T23:45:47.471Z,2.80
2018-11-29T23:48:15.195Z,2.90
2018-11-29T23:50:42.891Z,2.60
2018-11-29T23:53:10.669Z,2.60
2018-11-29T23:55:38.327Z,2.50
2018-11-29T23:58:05.991Z,2.60
